| time (UTC) | temp C | wind direction | speed KPH | gust KPH | rain 1hr cm | rain 24hr cm | rain mn cm | humidity % | barometer mb |
| 20260510034526 | 7 | 69 | 0.0 | 1.6 | 0.00 | 0.00 | 0.00 | 44 | 1014.0 |
| 20260510033029 | 7 | 69 | 0.0 | 0.0 | 0.00 | 0.00 | 0.00 | 40 | 1013.9 |
| 20260510031525 | 7 | 69 | 0.0 | 0.0 | 0.00 | 0.00 | 0.00 | 43 | 1013.9 |
| 20260510030024 | 7 | 69 | 0.0 | 1.6 | 0.00 | 0.00 | 0.00 | 44 | 1013.8 |
| 20260510024525 | 7 | 69 | 0.0 | 0.0 | 0.00 | 0.00 | 0.00 | 45 | 1013.6 |
| 20260510023023 | 7 | 69 | 0.0 | 3.2 | 0.00 | 0.00 | 0.00 | 44 | 1013.6 |
| 20260510021522 | 7 | 69 | 0.0 | 0.0 | 0.00 | 0.00 | 0.00 | 43 | 1013.6 |
| 20260510020022 | 7 | 69 | 0.0 | 3.2 | 0.00 | 0.00 | 0.00 | 45 | 1013.7 |
| 20260510014523 | 8 | 69 | 0.0 | 0.0 | 0.00 | 0.00 | 0.00 | 47 | 1013.7 |
| 20260510013020 | 8 | 69 | 0.0 | 0.0 | 0.00 | 0.00 | 0.00 | 44 | 1013.6 |
| 20260510011531 | 8 | 69 | 0.0 | 0.0 | 0.00 | 0.00 | 0.00 | 46 | 1013.4 |
| 20260510010019 | 8 | 69 | 0.0 | 0.0 | 0.00 | 0.00 | 0.00 | 46 | 1013.4 |
| 20260510004516 | 8 | 69 | 0.0 | 0.0 | 0.00 | 0.00 | 0.00 | 44 | 1013.2 |
| 20260510003016 | 8 | 69 | 1.6 | 3.2 | 0.00 | 0.00 | 0.00 | 44 | 1013.2 |
| 20260510001515 | 8 | 69 | 0.0 | 1.6 | 0.00 | 0.00 | 0.00 | 43 | 1013.2 |
| 20260510000014 | 9 | 69 | 0.0 | 0.0 | 0.00 | 0.00 | 0.00 | 43 | 1013.1 |
| 20260509234513 | 10 | 69 | 0.0 | 0.0 | 0.00 | 0.00 | 0.00 | 40 | 1013.0 |
| 20260509233013 | 11 | 69 | 0.0 | 1.6 | 0.00 | 0.00 | 0.00 | 40 | 1012.8 |
| 20260509231526 | 12 | 69 | 0.0 | 0.0 | 0.00 | 0.00 | 0.00 | 38 | 1012.5 |
| 20260509230012 | 13 | 151 | 0.0 | 0.0 | 0.00 | 0.00 | 0.00 | 33 | 1012.2 |
| 20260509224512 | 14 | 151 | 0.0 | 0.0 | 0.00 | 0.00 | 0.00 | 29 | 1012.0 |
| 20260509223014 | 16 | 151 | 0.0 | 0.0 | 0.00 | 0.00 | 0.00 | 26 | 1011.7 |
| 20260509221525 | 17 | 151 | 0.0 | 1.6 | 0.00 | 0.00 | 0.00 | 24 | 1011.3 |
| 20260509220010 | 18 | 145 | 0.0 | 6.4 | 0.00 | 0.00 | 0.00 | 23 | 1010.9 |
| 20260509214514 | 18 | 280 | 1.6 | 6.4 | 0.00 | 0.00 | 0.00 | 23 | 1010.6 |
| 20260509213009 | 19 | 273 | 1.6 | 12.9 | 0.00 | 0.00 | 0.00 | 22 | 1010.3 |
| 20260509211509 | 20 | 91 | 3.2 | 19.3 | 0.00 | 0.00 | 0.00 | 22 | 1010.1 |
| 20260509210009 | 20 | 192 | 3.2 | 22.5 | 0.00 | 0.00 | 0.00 | 21 | 1009.7 |
| 20260509204507 | 21 | 343 | 4.8 | 16.1 | 0.00 | 0.00 | 0.00 | 20 | 1009.5 |
| 20260509203007 | 21 | 99 | 4.8 | 25.7 | 0.00 | 0.00 | 0.00 | 19 | 1009.4 |
| 20260509201507 | 22 | 146 | 9.7 | 17.7 | 0.00 | 0.00 | 0.00 | 18 | 1009.3 |
| 20260509200006 | 22 | 76 | 6.4 | 20.9 | 0.00 | 0.00 | 0.00 | 18 | 1009.1 |
| 20260509194508 | 22 | 119 | 4.8 | 17.7 | 0.00 | 0.00 | 0.00 | 17 | 1009.1 |
| 20260509193004 | 22 | 63 | 1.6 | 17.7 | 0.00 | 0.00 | 0.00 | 16 | 1009.0 |
| 20260509191504 | 22 | 54 | 1.6 | 19.3 | 0.00 | 0.00 | 0.00 | 17 | 1009.1 |
| 20260509190006 | 23 | 133 | 6.4 | 22.5 | 0.00 | 0.00 | 0.00 | 16 | 1009.0 |
| 20260509184503 | 22 | 132 | 1.6 | 12.9 | 0.00 | 0.00 | 0.00 | 17 | 1009.2 |
| 20260509183104 | 22 | 67 | 3.2 | 17.7 | 0.00 | 0.00 | 0.00 | 17 | 1009.2 |
| 20260509183001 | 22 | 221 | 4.8 | 17.7 | 0.00 | 0.00 | 0.00 | 17 | 1009.3 |
| 20260509181600 | 22 | 9 | 4.8 | 17.7 | 0.00 | 0.00 | 0.00 | 17 | 1009.4 |
| 20260509180057 | 22 | 129 | 6.4 | 16.1 | 0.00 | 0.00 | 0.00 | 16 | 1009.6 |
| 20260509174557 | 21 | 124 | 4.8 | 17.7 | 0.00 | 0.00 | 0.00 | 18 | 1009.8 |
| 20260509173105 | 21 | 253 | 3.2 | 19.3 | 0.00 | 0.00 | 0.00 | 18 | 1010.1 |
| 20260509171607 | 21 | 148 | 4.8 | 16.1 | 0.00 | 0.00 | 0.00 | 18 | 1010.3 |
| 20260509170050 | 20 | 234 | 6.4 | 20.9 | 0.00 | 0.00 | 0.00 | 19 | 1010.7 |
| 20260509164553 | 20 | 101 | 6.4 | 24.1 | 0.00 | 0.00 | 0.00 | 18 | 1010.8 |
| 20260509163055 | 21 | 121 | 3.2 | 12.9 | 0.00 | 0.00 | 0.00 | 18 | 1010.7 |
| 20260509161548 | 23 | 108 | 6.4 | 14.5 | 0.00 | 0.00 | 0.00 | 14 | 1010.7 |
| 20260509160044 | 25 | 271 | 0.0 | 6.4 | 0.00 | 0.00 | 0.00 | 6 | 1010.8 |
| 20260509154542 | 24 | 273 | 1.6 | 4.8 | 0.00 | 0.00 | 0.00 | 7 | 1011.1 |
| 20260509153038 | 23 | 21 | 0.0 | 3.2 | 0.00 | 0.00 | 0.00 | 7 | 1011.3 |
| 20260509151535 | 23 | 187 | 0.0 | 4.8 | 0.00 | 0.00 | 0.00 | 9 | 1011.4 |
| 20260509150032 | 22 | 5 | 0.0 | 4.8 | 0.00 | 0.00 | 0.00 | 9 | 1011.5 |
| 20260509144524 | 21 | 226 | 0.0 | 3.2 | 0.00 | 0.00 | 0.00 | 10 | 1012.0 |
| 20260509143022 | 21 | 350 | 0.0 | 0.0 | 0.00 | 0.00 | 0.00 | 10 | 1012.4 |
| 20260509141526 | 20 | 11 | 0.0 | 4.8 | 0.00 | 0.00 | 0.00 | 12 | 1012.4 |
| 20260509140020 | 18 | 8 | 0.0 | 1.6 | 0.00 | 0.00 | 0.00 | 16 | 1012.8 |
| 20260509134509 | 17 | 8 | 0.0 | 1.6 | 0.00 | 0.00 | 0.00 | 19 | 1012.9 |
| 20260509133005 | 15 | 311 | 0.0 | 1.6 | 0.00 | 0.00 | 0.00 | 24 | 1012.9 |
| 20260509131636 | 12 | 311 | 0.0 | 1.6 | 0.00 | 0.00 | 0.00 | 32 | 1012.9 |
| 20260509130121 | 8 | 311 | 0.0 | 0.0 | 0.00 | 0.00 | 0.00 | 44 | 1012.9 |
| 20260509124554 | 4 | 311 | 0.0 | 1.6 | 0.00 | 0.00 | 0.00 | 50 | 1012.9 |
| 20260509123153 | 4 | 311 | 0.0 | 0.0 | 0.00 | 0.00 | 0.00 | 49 | 1012.9 |
| 20260509121552 | 3 | 311 | 0.0 | 3.2 | 0.00 | 0.00 | 0.00 | 49 | 1012.8 |
| 20260509120054 | 3 | 311 | 0.0 | 3.2 | 0.00 | 0.00 | 0.00 | 48 | 1012.5 |
| 20260509114605 | 3 | 311 | 0.0 | 1.6 | 0.00 | 0.00 | 0.00 | 47 | 1012.4 |
| 20260509113055 | 4 | 311 | 0.0 | 4.8 | 0.00 | 0.00 | 0.00 | 43 | 1012.3 |
| 20260509111548 | 5 | 311 | 0.0 | 0.0 | 0.00 | 0.00 | 0.00 | 42 | 1012.2 |
| 20260509110057 | 5 | 311 | 0.0 | 3.2 | 0.00 | 0.00 | 0.00 | 43 | 1012.0 |
| 20260509104648 | 5 | 311 | 0.0 | 3.2 | 0.00 | 0.00 | 0.00 | 40 | 1011.9 |
| 20260509103045 | 3 | 315 | 0.0 | 1.6 | 0.00 | 0.00 | 0.00 | 47 | 1011.7 |
| 20260509101545 | 3 | 315 | 0.0 | 0.0 | 0.00 | 0.00 | 0.00 | 47 | 1011.6 |
| 20260509100043 | 3 | 315 | 0.0 | 3.2 | 0.00 | 0.00 | 0.00 | 50 | 1011.5 |
| 20260509094540 | 4 | 316 | 1.6 | 3.2 | 0.00 | 0.00 | 0.00 | 46 | 1011.3 |
| 20260509093038 | 5 | 331 | 0.0 | 1.6 | 0.00 | 0.00 | 0.00 | 43 | 1011.1 |
| 20260509091536 | 5 | 331 | 0.0 | 1.6 | 0.00 | 0.00 | 0.00 | 45 | 1011.2 |
| 20260509090134 | 5 | 334 | 0.0 | 1.6 | 0.00 | 0.00 | 0.00 | 46 | 1011.2 |
| 20260509084537 | 5 | 270 | 0.0 | 6.4 | 0.00 | 0.00 | 0.00 | 45 | 1011.3 |
| 20260509083040 | 5 | 287 | 0.0 | 0.0 | 0.00 | 0.00 | 0.00 | 44 | 1011.2 |
| 20260509081541 | 6 | 287 | 0.0 | 0.0 | 0.00 | 0.00 | 0.00 | 42 | 1011.3 |
| 20260509080031 | 7 | 287 | 0.0 | 3.2 | 0.00 | 0.00 | 0.00 | 38 | 1011.4 |
| 20260509074529 | 6 | 282 | 0.0 | 0.0 | 0.00 | 0.00 | 0.00 | 39 | 1011.7 |
| 20260509073027 | 6 | 296 | 0.0 | 0.0 | 0.00 | 0.00 | 0.00 | 40 | 1011.7 |
| 20260509071628 | 6 | 292 | 0.0 | 1.6 | 0.00 | 0.00 | 0.00 | 41 | 1011.8 |
| 20260509070024 | 7 | 321 | 1.6 | 4.8 | 0.00 | 0.00 | 0.00 | 39 | 1012.0 |
| 20260509064523 | 6 | 337 | 0.0 | 0.0 | 0.00 | 0.00 | 0.00 | 42 | 1012.3 |
| 20260509063021 | 6 | 284 | 0.0 | 0.0 | 0.00 | 0.00 | 0.00 | 44 | 1012.3 |
| 20260509061519 | 5 | 284 | 0.0 | 1.6 | 0.00 | 0.00 | 0.00 | 51 | 1012.4 |
| 20260509060016 | 5 | 284 | 0.0 | 0.0 | 0.00 | 0.00 | 0.00 | 48 | 1012.6 |
| 20260509054522 | 6 | 284 | 0.0 | 0.0 | 0.00 | 0.00 | 0.00 | 46 | 1012.6 |
| 20260509053146 | 6 | 284 | 0.0 | 0.0 | 0.00 | 0.00 | 0.00 | 44 | 1012.5 |
| 20260509051513 | 6 | 284 | 0.0 | 3.2 | 0.00 | 0.00 | 0.00 | 44 | 1012.7 |
| 20260509050022 | 7 | 284 | 0.0 | 4.8 | 0.00 | 0.00 | 0.00 | 45 | 1012.7 |
| 20260509044506 | 8 | 284 | 0.0 | 4.8 | 0.00 | 0.00 | 0.00 | 42 | 1012.8 |
| 20260509043001 | 8 | 284 | 0.0 | 4.8 | 0.00 | 0.00 | 0.00 | 40 | 1012.9 |
| 20260509041600 | 8 | 284 | 0.0 | 3.2 | 0.00 | 0.00 | 0.00 | 45 | 1013.0 |
| 20260509040112 | 8 | 284 | 0.0 | 0.0 | 0.00 | 0.00 | 0.00 | 42 | 1013.1 |